sensor_id;sensor_type;location;lat;lon;timestamp;P1;durP1;ratioP1;P2;durP2;ratioP2
10333;SDS011;5212;47.892;16.406;2023-03-01T09:13:54;51.67;;;32.03;;
10333;SDS011;5212;47.892;16.406;2023-03-01T09:16:21;47.77;;;31.47;;
10333;SDS011;5212;47.892;16.406;2023-03-01T09:18:48;45.70;;;30.13;;
10333;SDS011;5212;47.892;16.406;2023-03-01T09:21:16;49.07;;;31.83;;
10333;SDS011;5212;47.892;16.406;2023-03-01T09:23:44;49.50;;;31.47;;
10333;SDS011;5212;47.892;16.406;2023-03-01T09:54:49;40.00;;;27.23;;
10333;SDS011;5212;47.892;16.406;2023-03-01T10:28:17;35.43;;;24.97;;
10333;SDS011;5212;47.892;16.406;2023-03-01T10:43:44;32.37;;;23.67;;
10333;SDS011;5212;47.892;16.406;2023-03-01T10:46:23;36.30;;;24.37;;
10333;SDS011;5212;47.892;16.406;2023-03-01T13:04:01;27.07;;;20.57;;
10333;SDS011;5212;47.892;16.406;2023-03-01T13:32:22;20.90;;;16.70;;
10333;SDS011;5212;47.892;16.406;2023-03-01T13:37:25;42.17;;;30.03;;
10333;SDS011;5212;47.892;16.406;2023-03-01T13:58:03;24.23;;;18.27;;
10333;SDS011;5212;47.892;16.406;2023-03-01T15:38:54;13.13;;;10.40;;
10333;SDS011;5212;47.892;16.406;2023-03-01T15:41:22;15.27;;;11.20;;
10333;SDS011;5212;47.892;16.406;2023-03-01T15:43:50;15.13;;;10.43;;
10333;SDS011;5212;47.892;16.406;2023-03-01T15:46:23;12.23;;;8.93;;
10333;SDS011;5212;47.892;16.406;2023-03-01T15:48:53;13.43;;;9.53;;
10333;SDS011;5212;47.892;16.406;2023-03-01T16:09:25;19.50;;;14.80;;
10333;SDS011;5212;47.892;16.406;2023-03-01T16:14:28;16.93;;;12.23;;
10333;SDS011;5212;47.892;16.406;2023-03-01T16:24:42;16.40;;;12.87;;
10333;SDS011;5212;47.892;16.406;2023-03-01T16:34:54;15.17;;;11.30;;
10333;SDS011;5212;47.892;16.406;2023-03-01T16:37:20;14.87;;;11.67;;
10333;SDS011;5212;47.892;16.406;2023-03-01T16:39:48;14.57;;;9.87;;
10333;SDS011;5212;47.892;16.406;2023-03-01T16:47:42;13.47;;;9.97;;
10333;SDS011;5212;47.892;16.406;2023-03-01T16:50:13;14.03;;;10.07;;
10333;SDS011;5212;47.892;16.406;2023-03-01T16:55:16;15.47;;;10.70;;
10333;SDS011;5212;47.892;16.406;2023-03-01T16:57:43;16.60;;;12.27;;
10333;SDS011;5212;47.892;16.406;2023-03-01T17:05:20;15.83;;;12.00;;
10333;SDS011;5212;47.892;16.406;2023-03-01T17:07:48;17.60;;;13.40;;
10333;SDS011;5212;47.892;16.406;2023-03-01T17:10:15;16.43;;;12.27;;
10333;SDS011;5212;47.892;16.406;2023-03-01T17:12:42;19.63;;;12.50;;
10333;SDS011;5212;47.892;16.406;2023-03-01T17:15:08;18.53;;;13.03;;
10333;SDS011;5212;47.892;16.406;2023-03-01T17:17:36;16.60;;;11.93;;
10333;SDS011;5212;47.892;16.406;2023-03-01T17:20:03;16.80;;;12.27;;
10333;SDS011;5212;47.892;16.406;2023-03-01T17:22:30;15.33;;;11.03;;
10333;SDS011;5212;47.892;16.406;2023-03-01T17:24:57;15.50;;;11.60;;
10333;SDS011;5212;47.892;16.406;2023-03-01T17:27:27;15.17;;;11.30;;
10333;SDS011;5212;47.892;16.406;2023-03-01T17:32:29;16.60;;;12.17;;
10333;SDS011;5212;47.892;16.406;2023-03-01T17:34:55;19.73;;;13.67;;
10333;SDS011;5212;47.892;16.406;2023-03-01T17:37:22;18.23;;;13.37;;
10333;SDS011;5212;47.892;16.406;2023-03-01T17:39:49;21.37;;;14.83;;
10333;SDS011;5212;47.892;16.406;2023-03-01T17:42:15;19.70;;;15.20;;
10333;SDS011;5212;47.892;16.406;2023-03-01T17:44:41;19.40;;;14.13;;
10333;SDS011;5212;47.892;16.406;2023-03-01T17:47:08;16.17;;;12.10;;
10333;SDS011;5212;47.892;16.406;2023-03-01T17:49:35;15.53;;;11.30;;
10333;SDS011;5212;47.892;16.406;2023-03-01T17:52:01;15.27;;;11.63;;
10333;SDS011;5212;47.892;16.406;2023-03-01T17:54:27;15.47;;;11.43;;
10333;SDS011;5212;47.892;16.406;2023-03-01T17:56:54;22.53;;;16.20;;
10333;SDS011;5212;47.892;16.406;2023-03-01T17:59:22;22.50;;;16.37;;
10333;SDS011;5212;47.892;16.406;2023-03-01T18:01:50;18.80;;;14.37;;
10333;SDS011;5212;47.892;16.406;2023-03-01T18:04:17;18.43;;;13.63;;
10333;SDS011;5212;47.892;16.406;2023-03-01T18:06:45;19.63;;;13.80;;
10333;SDS011;5212;47.892;16.406;2023-03-01T18:09:11;18.03;;;13.57;;
10333;SDS011;5212;47.892;16.406;2023-03-01T18:11:38;18.40;;;13.57;;
10333;SDS011;5212;47.892;16.406;2023-03-01T18:14:06;23.40;;;16.33;;
10333;SDS011;5212;47.892;16.406;2023-03-01T18:16:32;23.17;;;16.93;;
10333;SDS011;5212;47.892;16.406;2023-03-01T18:19:00;24.67;;;17.50;;
10333;SDS011;5212;47.892;16.406;2023-03-01T18:21:26;23.97;;;16.80;;
10333;SDS011;5212;47.892;16.406;2023-03-01T18:23:53;24.60;;;16.40;;
10333;SDS011;5212;47.892;16.406;2023-03-01T18:26:20;19.80;;;14.30;;
10333;SDS011;5212;47.892;16.406;2023-03-01T18:28:49;20.60;;;14.53;;
10333;SDS011;5212;47.892;16.406;2023-03-01T18:31:17;19.17;;;13.70;;
10333;SDS011;5212;47.892;16.406;2023-03-01T18:33:45;20.30;;;13.83;;
10333;SDS011;5212;47.892;16.406;2023-03-01T18:36:16;25.80;;;18.50;;
10333;SDS011;5212;47.892;16.406;2023-03-01T18:38:44;26.00;;;16.97;;
10333;SDS011;5212;47.892;16.406;2023-03-01T18:41:10;23.67;;;17.43;;
10333;SDS011;5212;47.892;16.406;2023-03-01T18:43:37;22.23;;;16.13;;
10333;SDS011;5212;47.892;16.406;2023-03-01T18:46:03;22.57;;;15.80;;
10333;SDS011;5212;47.892;16.406;2023-03-01T18:48:30;20.57;;;14.90;;
10333;SDS011;5212;47.892;16.406;2023-03-01T18:50:57;23.67;;;16.67;;
10333;SDS011;5212;47.892;16.406;2023-03-01T18:53:34;23.60;;;17.23;;
10333;SDS011;5212;47.892;16.406;2023-03-01T18:56:00;20.97;;;15.00;;
10333;SDS011;5212;47.892;16.406;2023-03-01T19:42:26;32.40;;;20.50;;
10333;SDS011;5212;47.892;16.406;2023-03-01T19:44:56;32.13;;;20.33;;
